Aeroporto :
LOGIN :

Iscrizione | Disclaimer

   EN    FR    IT 

 










Sommario :    VFR   VFR Marginale   IFR   IFR Intensivo   IFR Molto Intensivo
Visibilità : 
Base nubi : 
>= 8 km
>= 3000ft
5 / 8 km
1000 / 3000 ft
1500m / 5 km
500 / 1000 ft
800 / 1500m
200 / 500 ft
< 800m
< 200 ft
Simboli :   Temporali  Nebbia  Neve Forte  Precipitazioni Forti  Vento > 20 kt
SIGMETs :   Varie  Temporali  Ghiacco  Turbolenza  Onda orograficha  Ceneri Vulcaniche






- Altitudine del aeroporto : 46 ft
- Codice IATA : SNN


EINN - Shannon

ULTIMO METAR :
  • 012100Z 28005KT 9999 FEW024 BKN034 08/04 Q1025 NOSIG

METARs OBSOLETI :
  • 012030Z 28007KT 9999 FEW024 BKN036 08/04 Q1025 NOSIG
  • 012000Z 30008KT 9999 FEW024 BKN034 08/04 Q1025 NOSIG
  • 011930Z 30009KT 9999 FEW025 BKN045 08/04 Q1025 NOSIG
  • 011900Z 31010KT 9999 FEW024 BKN045 09/04 Q1025 NOSIG
  • 011830Z 30008KT 9999 FEW024 BKN043 09/04 Q1025 NOSIG

TAF TAF EINN
Valido dal 01 a 18 ore il 02 a 18 ore UTC


011700Z 0118/0218 30011KT 9999 FEW025 BKN035
BECMG 0121/0123 27007KT
PROB40
TEMPO 0203/0216 BKN012
BECMG 0210/0212 28015G25KT
BECMG 0216/0218 30012KT
TEMPO 0216/0218 -RA BKN012



MetMap, La meteo Aeronautica in un colpo d'occhio ! - Copyright ORBIFLY Dicembre 2007 - Disclaimer

ORBIFLY MET'MAP TEAM :

Programmazione e sviluppo : Alexandra Zaïnal
Concezione : Baudouin d'Aumeries
Aiuto per la programmazione : Marc-Olivier Méhu
Supporto tecnico e logistico : Manuel Goepfert
Aiuto per la traduzione : Arnaldo La Scala

Contatto : metmap@orbifly.com




FONTI E CREDITI :

   NOAA